Time;durP1;ratioP1;P1;durP2;ratioP2;P2;SDS_P1;SDS_P2;PMS_P1;PMS_P2;Temp;Humidity;BMP_temperature;BMP_pressure;BME280_temperature;BME280_humidity;BME280_pressure;Samples;Min_cycle;Max_cycle;Signal;HPM_P1;HPM_P2
2022/03/25 00:01:20;;;;;;;;;41.75;33.25;;;;;16.45;27.34;102303.44;4973261;28;45501;-83
2022/03/25 00:03:45;;;;;;;;;40.50;34.00;;;;;16.98;27.02;102405.28;4979666;28;45631;-83
2022/03/25 00:06:11;;;;;;;;;43.75;35.50;;;;;16.97;27.19;102398.09;4983983;28;45354;-83
2022/03/25 00:08:36;;;;;;;;;40.50;33.75;;;;;16.95;27.08;102404.50;4994082;28;45764;-84
2022/03/25 00:11:02;;;;;;;;;36.75;32.50;;;;;16.92;27.25;102400.13;5060865;28;45369;-84
2022/03/25 00:13:28;;;;;;;;;39.50;32.50;;;;;16.89;27.32;102402.97;5061252;28;45647;-83
2022/03/25 00:15:54;;;;;;;;;42.25;33.50;;;;;16.60;27.39;102359.31;5025121;28;45343;-83
2022/03/25 00:18:19;;;;;;;;;31.00;30.00;;;;;16.84;27.36;102400.47;5076894;28;45525;-84
2022/03/25 00:20:49;;;;;;;;;41.50;32.25;;;;;16.78;27.33;102392.63;5016505;28;45398;-83
2022/03/25 00:23:15;;;;;;;;;36.50;32.50;;;;;16.80;27.36;102408.75;5063239;28;45648;-83
2022/03/25 00:25:40;;;;;;;;;35.00;31.25;;;;;16.50;27.48;102357.06;5017391;28;46042;-83
2022/03/25 00:28:06;;;;;;;;;35.00;32.50;;;;;16.77;27.42;102401.66;5038750;28;45402;-84
2022/03/25 00:30:32;;;;;;;;;38.25;32.00;;;;;16.67;27.42;102393.09;5047268;28;45315;-83
2022/03/25 00:32:57;;;;;;;;;37.25;32.75;;;;;16.70;27.61;102400.19;5077045;28;45382;-84
2022/03/25 00:35:23;;;;;;;;;33.75;31.00;;;;;16.52;27.60;102377.59;5062974;28;46450;-83
2022/03/25 00:37:48;;;;;;;;;37.25;34.00;;;;;16.41;27.58;102361.03;5021844;28;45380;-84
2022/03/25 00:40:13;;;;;;;;;39.00;33.75;;;;;16.63;27.63;102407.63;5023855;28;45429;-83
2022/03/25 00:42:40;;;;;;;;;32.00;31.25;;;;;16.51;27.68;102383.94;5051576;28;45542;-83
2022/03/25 00:45:06;;;;;;;;;39.25;34.50;;;;;16.52;27.76;102396.44;5002732;28;45887;-83
2022/03/25 00:47:31;;;;;;;;;39.25;32.75;;;;;16.14;27.68;102333.47;4962691;28;45405;-83
2022/03/25 00:49:57;;;;;;;;;32.75;28.00;;;;;16.51;27.66;102394.69;5024676;28;45638;-83
2022/03/25 00:52:22;;;;;;;;;43.00;36.00;;;;;16.29;27.76;102364.22;4987983;28;45779;-83
2022/03/25 00:54:50;;;;;;;;;43.50;34.50;;;;;16.44;27.97;102387.81;5058883;28;46049;-83
2022/03/25 00:57:16;;;;;;;;;22.00;19.75;;;;;16.06;27.79;102328.44;5010636;28;45318;-84
2022/03/25 00:59:41;;;;;;;;;44.50;33.50;;;;;16.45;27.82;102395.81;5056047;28;45621;-84
2022/03/25 01:02:07;;;;;;;;;41.75;35.00;;;;;16.17;27.93;102354.84;5015028;28;45664;-83
2022/03/25 01:04:33;;;;;;;;;43.50;33.00;;;;;15.91;27.75;102315.59;5043507;28;45308;-84
2022/03/25 01:06:59;;;;;;;;;47.00;34.00;;;;;16.28;27.94;102378.63;4996888;28;45627;-83
2022/03/25 01:09:24;;;;;;;;;44.25;36.75;;;;;16.37;28.02;102397.09;4964498;28;45364;-83
2022/03/25 01:11:50;;;;;;;;;43.75;34.75;;;;;16.34;28.24;102394.50;5025816;28;45517;-84
2022/03/25 01:14:15;;;;;;;;;37.25;33.50;;;;;15.97;28.06;102335.06;5079579;28;45363;-84
2022/03/25 01:16:40;;;;;;;;;29.25;23.75;;;;;16.19;28.36;102378.06;5021641;28;45333;-84
2022/03/25 01:19:06;;;;;;;;;43.00;36.25;;;;;15.98;28.10;102344.84;4967154;28;46392;-83
2022/03/25 01:21:32;;;;;;;;;47.25;36.25;;;;;15.88;28.22;102323.78;4960806;28;45656;-83
2022/03/25 01:23:57;;;;;;;;;45.00;35.25;;;;;16.21;28.48;102388.78;4976435;28;46090;-83
2022/03/25 01:26:24;;;;;;;;;36.75;33.00;;;;;16.07;28.43;102365.13;4987723;28;45438;-83
2022/03/25 01:28:50;;;;;;;;;38.50;33.50;;;;;16.18;28.39;102380.84;4996616;28;45558;-83
2022/03/25 01:31:16;;;;;;;;;36.00;31.50;;;;;15.89;28.55;102334.47;4996061;28;45480;-83
2022/03/25 01:33:42;;;;;;;;;34.25;32.25;;;;;16.01;28.56;102358.19;5020153;28;46356;-83
2022/03/25 01:36:07;;;;;;;;;34.50;33.50;;;;;16.14;28.59;102381.91;5040071;28;45312;-83
2022/03/25 01:38:33;;;;;;;;;44.50;34.25;;;;;16.08;28.35;102371.38;5049084;28;45549;-83
2022/03/25 01:40:59;;;;;;;;;38.75;32.75;;;;;15.87;28.69;102330.97;5010786;28;45516;-83
2022/03/25 01:43:24;;;;;;;;;45.50;36.75;;;;;15.86;28.85;102331.03;4976511;28;45477;-83
2022/03/25 01:45:50;;;;;;;;;33.00;31.50;;;;;15.67;28.76;102307.56;4983258;28;45413;-83
2022/03/25 01:48:17;;;;;;;;;39.25;32.00;;;;;15.69;28.99;102316.44;5039457;28;45498;-83
2022/03/25 01:50:44;;;;;;;;;48.75;36.00;;;;;15.81;28.70;102337.47;5079787;28;45401;-83
2022/03/25 01:53:19;;;;;;;;;31.25;31.25;;;;;15.86;28.97;102360.63;5078770;28;45477;-83
2022/03/25 01:55:56;;;;;;;;;35.00;32.00;;;;;15.53;29.06;102308.09;5079185;28;45314;-83
2022/03/25 01:58:23;;;;;;;;;42.50;35.00;;;;;15.82;29.21;102368.78;5079075;28;45732;-83
2022/03/25 02:00:49;;;;;;;;;31.25;28.50;;;;;15.89;28.97;102368.56;5079752;28;45373;-84
2022/03/25 02:03:16;;;;;;;;;45.00;35.25;;;;;15.81;29.31;102369.75;5049083;28;46719;-83
2022/03/25 02:05:43;;;;;;;;;42.00;36.00;;;;;15.82;29.32;102373.28;5058691;28;45461;-83
2022/03/25 02:08:09;;;;;;;;;38.50;32.75;;;;;15.44;29.52;102308.47;5057541;28;45763;-83
2022/03/25 02:10:35;;;;;;;;;33.75;25.50;;;;;15.64;29.36;102345.31;5059353;28;45431;-83
2022/03/25 02:13:01;;;;;;;;;37.00;34.25;;;;;15.72;29.54;102363.84;5058584;28;45445;-83
2022/03/25 02:15:34;;;;;;;;;36.00;32.25;;;;;15.48;29.61;102331.59;5058808;28;45444;-83
2022/03/25 02:18:08;;;;;;;;;41.25;34.00;;;;;15.35;29.71;102325.81;5057279;28;45577;-83
2022/03/25 02:20:34;;;;;;;;;44.00;35.25;;;;;15.58;29.93;102369.72;5058388;28;45455;-83
2022/03/25 02:23:00;;;;;;;;;36.25;31.75;;;;;15.39;30.44;102350.75;5058278;28;45396;-83
2022/03/25 02:25:27;;;;;;;;;32.25;31.50;;;;;15.41;30.38;102356.94;5058389;28;45303;-83
2022/03/25 02:27:53;;;;;;;;;43.50;35.50;;;;;15.45;30.35;102369.31;5058834;28;45392;-83
2022/03/25 02:30:20;;;;;;;;;42.75;35.50;;;;;15.27;30.73;102346.72;5058647;28;45302;-83
2022/03/25 02:32:45;;;;;;;;;37.75;35.50;;;;;15.35;30.97;102368.78;5058414;28;45414;-84
2022/03/25 02:35:11;;;;;;;;;36.75;32.50;;;;;15.29;31.25;102370.81;5058036;28;45393;-83
2022/03/25 02:37:36;;;;;;;;;32.75;32.50;;;;;15.24;31.20;102370.13;5058370;28;45394;-83
2022/03/25 02:40:02;;;;;;;;;41.00;35.00;;;;;15.06;31.22;102350.22;5041500;28;45602;-83
2022/03/25 02:42:27;;;;;;;;;49.00;37.00;;;;;14.78;31.18;102311.81;4995488;28;45425;-83
2022/03/25 02:44:53;;;;;;;;;44.50;33.75;;;;;14.95;31.46;102348.78;4991308;27;45376;-83
2022/03/25 02:47:19;;;;;;;;;44.00;35.75;;;;;14.64;31.69;102307.88;4975727;28;45271;-83
2022/03/25 02:49:44;;;;;;;;;40.50;33.50;;;;;14.99;31.98;102373.72;4958844;28;45521;-83
2022/03/25 02:52:09;;;;;;;;;37.25;34.25;;;;;14.74;31.80;102341.50;4975476;28;46531;-83
2022/03/25 02:54:35;;;;;;;;;44.00;35.00;;;;;14.66;32.00;102327.50;4975960;28;45256;-83
2022/03/25 02:57:00;;;;;;;;;38.25;32.75;;;;;13.99;32.22;102229.63;4958333;28;45325;-83
2022/03/25 02:59:25;;;;;;;;;38.50;31.75;;;;;14.45;32.29;102326.41;4958716;28;45418;-83
2022/03/25 03:01:52;;;;;;;;;49.75;34.75;;;;;14.66;32.50;102374.00;4975702;28;46078;-83
2022/03/25 03:04:17;;;;;;;;;40.50;33.00;;;;;14.67;32.59;102378.41;5059685;28;45754;-83
2022/03/25 03:06:46;;;;;;;;;41.25;35.50;;;;;14.34;33.19;102329.44;4975831;28;45326;-83
2022/03/25 03:09:11;;;;;;;;;35.25;30.50;;;;;14.51;32.86;102353.88;4975962;28;45568;-83
2022/03/25 03:11:37;;;;;;;;;34.75;31.50;;;;;14.60;33.10;102376.00;5059254;28;46965;-83
2022/03/25 03:14:04;;;;;;;;;37.50;31.75;;;;;14.28;33.24;102337.69;4975507;28;45428;-83
2022/03/25 03:16:29;;;;;;;;;38.50;33.25;;;;;14.44;33.29;102368.44;4974105;28;45331;-83
2022/03/25 03:18:54;;;;;;;;;43.25;34.25;;;;;14.34;33.34;102354.44;4975939;28;45566;-83
2022/03/25 03:21:23;;;;;;;;;39.50;35.50;;;;;14.05;33.74;102309.84;4975092;28;45851;-83
2022/03/25 03:23:51;;;;;;;;;40.25;35.00;;;;;14.44;33.61;102383.66;4975270;28;45430;-83
2022/03/25 03:26:17;;;;;;;;;39.25;34.75;;;;;14.41;33.76;102378.41;5059583;28;45330;-83
2022/03/25 03:28:44;;;;;;;;;44.75;35.25;;;;;14.05;33.89;102319.72;4975751;28;45399;-83
2022/03/25 03:31:09;;;;;;;;;48.50;40.00;;;;;14.31;33.93;102380.53;4975316;28;46249;-83
2022/03/25 03:33:34;;;;;;;;;46.50;38.50;;;;;14.26;34.36;102383.34;4975218;28;45485;-83
2022/03/25 03:36:00;;;;;;;;;48.75;40.25;;;;;14.23;34.39;102372.69;4975554;28;45350;-83
2022/03/25 03:38:25;;;;;;;;;34.75;28.75;;;;;14.02;34.41;102339.41;4975510;28;45366;-83
2022/03/25 03:40:50;;;;;;;;;42.25;35.00;;;;;13.27;34.52;102214.13;4975368;28;46215;-83
2022/03/25 03:43:16;;;;;;;;;50.00;41.50;;;;;14.15;34.86;102372.09;4975064;28;45427;-83
2022/03/25 03:45:41;;;;;;;;;50.25;38.25;;;;;13.91;34.89;102334.44;4975232;28;45194;-83
2022/03/25 03:48:06;;;;;;;;;42.25;37.00;;;;;14.06;34.58;102369.72;4975792;28;45148;-83
2022/03/25 03:50:32;;;;;;;;;44.75;35.25;;;;;14.07;35.31;102364.31;4975004;28;45423;-83
2022/03/25 03:52:57;;;;;;;;;45.50;36.25;;;;;14.05;35.28;102362.59;4974424;28;45270;-83
2022/03/25 03:55:23;;;;;;;;;46.50;38.50;;;;;13.99;35.50;102366.34;4974788;28;45527;-83
2022/03/25 03:57:48;;;;;;;;;45.50;36.25;;;;;13.55;35.44;102304.28;4975239;28;45319;-83
2022/03/25 04:00:14;;;;;;;;;47.50;38.75;;;;;13.92;35.56;102373.69;4974900;28;45308;-83
2022/03/25 04:02:40;;;;;;;;;47.25;37.25;;;;;13.87;35.88;102367.59;5009309;28;45355;-83
2022/03/25 04:05:06;;;;;;;;;43.25;34.25;;;;;13.77;35.73;102358.13;5055890;28;45544;-83
2022/03/25 04:07:31;;;;;;;;;38.25;35.50;;;;;13.87;36.02;102374.78;5057542;28;45362;-83
2022/03/25 04:09:57;;;;;;;;;44.50;36.50;;;;;13.85;36.31;102377.50;5055676;28;54805;-83
2022/03/25 04:12:23;;;;;;;;;43.75;36.75;;;;;13.61;36.08;102333.59;5057318;28;45398;-83
2022/03/25 04:14:48;;;;;;;;;47.00;37.00;;;;;13.57;36.08;102328.38;5057166;28;45299;-83
2022/03/25 04:17:14;;;;;;;;;46.50;36.75;;;;;13.77;36.63;102373.31;5057413;28;45393;-83
2022/03/25 04:19:39;;;;;;;;;41.00;35.00;;;;;13.59;36.78;102343.47;5072106;28;48051;-83
2022/03/25 04:22:06;;;;;;;;;41.50;35.25;;;;;13.59;36.73;102353.31;5057111;28;45426;-83
2022/03/25 04:24:32;;;;;;;;;45.00;35.50;;;;;13.66;36.78;102379.88;5057321;28;45781;-83
2022/03/25 04:26:57;;;;;;;;;45.50;35.50;;;;;13.61;36.94;102379.13;5058077;28;45748;-83
2022/03/25 04:29:23;;;;;;;;;41.00;35.00;;;;;13.56;36.48;102377.53;5060604;28;45300;-83
2022/03/25 04:31:48;;;;;;;;;40.50;37.50;;;;;13.59;36.83;102385.47;5060297;28;45512;-83
2022/03/25 04:34:14;;;;;;;;;35.00;33.25;;;;;13.26;37.21;102321.22;5034578;28;45336;-83
2022/03/25 04:36:39;;;;;;;;;47.50;40.25;;;;;13.40;36.88;102353.88;4977664;28;45483;-83
2022/03/25 04:39:05;;;;;;;;;47.50;37.00;;;;;13.54;37.14;102388.28;4979786;28;47187;-83
2022/03/25 04:41:30;;;;;;;;;48.25;38.25;;;;;13.39;37.20;102378.91;4958140;28;45422;-83
2022/03/25 04:43:56;;;;;;;;;41.75;36.00;;;;;13.38;37.40;102382.50;4958111;28;45370;-83
2022/03/25 04:46:21;;;;;;;;;46.25;39.50;;;;;13.21;37.24;102358.84;4958172;28;45537;-83
2022/03/25 04:48:46;;;;;;;;;42.75;36.75;;;;;13.33;37.16;102379.06;4958671;28;45963;-83
2022/03/25 04:51:12;;;;;;;;;45.75;34.75;;;;;13.27;37.40;102377.47;4992402;28;46167;-83
2022/03/25 04:53:38;;;;;;;;;46.00;37.50;;;;;13.28;37.24;102373.84;4977447;28;45325;-83
2022/03/25 04:56:04;;;;;;;;;47.75;36.25;;;;;13.39;37.35;102405.69;4977481;28;45709;-83
2022/03/25 04:58:29;;;;;;;;;45.75;39.50;;;;;13.37;37.47;102395.91;4977243;28;46111;-83
2022/03/25 05:00:55;;;;;;;;;48.25;38.50;;;;;13.36;37.21;102405.75;4976919;28;45469;-83
2022/03/25 05:03:21;;;;;;;;;49.75;36.75;;;;;13.05;37.10;102358.41;4977384;28;45362;-82
2022/03/25 05:05:47;;;;;;;;;42.50;37.25;;;;;13.32;37.46;102411.25;4976067;28;45297;-83
2022/03/25 05:08:12;;;;;;;;;51.75;39.50;;;;;13.08;37.04;102379.72;4975333;28;45440;-83
2022/03/25 05:10:38;;;;;;;;;41.25;34.25;;;;;12.85;37.59;102352.72;4977005;28;45356;-83
2022/03/25 05:13:04;;;;;;;;;44.00;37.25;;;;;13.20;37.62;102407.94;4977193;28;45276;-82
2022/03/25 05:15:29;;;;;;;;;48.00;38.00;;;;;12.25;37.81;102264.28;4977607;28;45364;-83
2022/03/25 05:17:55;;;;;;;;;41.75;37.50;;;;;12.88;37.93;102388.31;4975433;28;46766;-83
2022/03/25 05:20:21;;;;;;;;;45.00;37.75;;;;;12.62;37.80;102343.53;4976330;28;58435;-83
2022/03/25 05:22:48;;;;;;;;;42.75;38.25;;;;;13.07;38.08;102419.94;4977230;28;45306;-82
2022/03/25 05:25:13;;;;;;;;;47.50;35.00;;;;;13.05;38.13;102411.06;4976655;28;45398;-83
2022/03/25 05:27:54;;;;;;;;;46.75;38.00;;;;;13.00;38.37;102416.53;4976433;28;45893;-82
2022/03/25 05:30:29;;;;;;;;;44.00;35.00;;;;;13.00;38.25;102423.72;4975370;28;45506;-82
2022/03/25 05:32:55;;;;;;;;;43.75;38.00;;;;;12.65;38.38;102364.84;4976662;28;45940;-83
2022/03/25 05:35:22;;;;;;;;;45.50;38.75;;;;;12.75;38.82;102404.72;4975599;28;45407;-83
2022/03/25 05:37:47;;;;;;;;;47.75;37.50;;;;;12.51;38.44;102364.31;4976251;28;45527;-83
2022/03/25 05:40:13;;;;;;;;;44.75;35.50;;;;;12.80;38.42;102414.38;4975763;28;45482;-83
2022/03/25 05:42:40;;;;;;;;;40.50;36.00;;;;;12.83;38.42;102419.69;4977058;28;45400;-83
2022/03/25 05:45:07;;;;;;;;;49.25;37.00;;;;;12.83;38.58;102426.81;4976789;28;45224;-83
2022/03/25 05:47:34;;;;;;;;;44.50;35.25;;;;;12.61;38.44;102386.38;4976614;28;45259;-83
2022/03/25 05:49:59;;;;;;;;;44.25;37.50;;;;;12.50;38.65;102359.88;4975004;28;45611;-83
2022/03/25 05:52:25;;;;;;;;;46.50;38.50;;;;;12.73;38.96;102415.47;4976664;28;45371;-83
2022/03/25 05:54:51;;;;;;;;;45.25;37.50;;;;;12.72;39.03;102418.19;4977023;28;45513;-83
2022/03/25 05:57:16;;;;;;;;;48.50;38.25;;;;;12.56;39.27;102396.31;4976381;28;46503;-83
2022/03/25 05:59:43;;;;;;;;;43.50;34.75;;;;;12.68;39.21;102418.25;4976442;28;45369;-82
2022/03/25 06:02:08;;;;;;;;;46.00;36.50;;;;;12.75;39.01;102429.69;4969872;28;45575;-83
2022/03/25 06:04:34;;;;;;;;;49.00;39.25;;;;;12.51;38.97;102385.72;4976561;28;45466;-83
2022/03/25 06:06:59;;;;;;;;;46.25;37.25;;;;;12.45;39.27;102372.50;4991376;28;45500;-82
2022/03/25 06:09:24;;;;;;;;;47.25;36.00;;;;;12.78;39.14;102442.09;4996145;28;45357;-83
2022/03/25 06:11:51;;;;;;;;;46.50;37.75;;;;;12.57;39.38;102406.97;4996392;27;45530;-82
2022/03/25 06:14:16;;;;;;;;;45.25;36.50;;;;;12.72;39.20;102440.47;4996293;27;45355;-83
2022/03/25 06:16:42;;;;;;;;;47.00;37.75;;;;;12.71;39.77;102443.19;4996766;27;45394;-83
2022/03/25 06:19:07;;;;;;;;;47.50;36.00;;;;;12.64;39.73;102432.66;4996216;27;45291;-82
2022/03/25 06:21:33;;;;;;;;;48.25;37.75;;;;;12.59;39.70;102431.88;4973203;28;53094;-81
2022/03/25 06:23:58;;;;;;;;;47.50;38.25;;;;;12.70;39.77;102450.34;4973426;28;45423;-81
2022/03/25 06:26:24;;;;;;;;;50.50;41.25;;;;;12.69;40.11;102456.63;4971565;28;47853;-81
2022/03/25 06:28:49;;;;;;;;;44.75;36.50;;;;;12.60;40.09;102439.00;4975826;28;45421;-81
2022/03/25 06:31:14;;;;;;;;;50.00;38.25;;;;;12.65;40.11;102442.41;4964905;28;45565;-81
2022/03/25 06:33:41;;;;;;;;;45.25;37.00;;;;;12.77;39.72;102453.75;4975130;28;45405;-82
2022/03/25 06:36:13;;;;;;;;;45.50;37.25;;;;;12.55;39.91;102414.16;4982865;28;46198;-81
2022/03/25 06:38:41;;;;;;;;;45.50;37.75;;;;;12.74;39.73;102438.66;4985080;28;45512;-79
2022/03/25 06:41:07;;;;;;;;;52.00;40.50;;;;;12.64;39.94;102423.72;4973381;28;45319;-80
2022/03/25 06:43:33;;;;;;;;;49.25;36.75;;;;;12.89;39.69;102466.78;4973377;28;45472;-79
2022/03/25 06:45:59;;;;;;;;;51.50;39.75;;;;;12.74;40.06;102427.94;4987635;28;45790;-82
2022/03/25 06:48:25;;;;;;;;;52.75;42.75;;;;;12.97;39.85;102475.53;4985506;28;45442;-81
2022/03/25 06:50:50;;;;;;;;;74.50;59.50;;;;;13.00;39.63;102471.88;5058163;28;45580;-80
2022/03/25 06:53:16;;;;;;;;;53.00;42.50;;;;;12.82;39.58;102433.97;5007989;28;45595;-81
2022/03/25 06:55:43;;;;;;;;;51.75;41.25;;;;;12.91;40.12;102440.00;5077508;28;46350;-81
2022/03/25 06:58:10;;;;;;;;;52.00;40.50;;;;;13.08;39.75;102467.19;5043211;28;45747;-82
2022/03/25 07:00:35;;;;;;;;;55.00;40.50;;;;;12.94;39.55;102431.88;5042699;28;45525;-82
2022/03/25 07:03:01;;;;;;;;;55.00;41.25;;;;;13.00;39.94;102439.75;5003351;28;45575;-82
2022/03/25 07:05:29;;;;;;;;;55.50;44.25;;;;;13.26;39.81;102477.41;4977017;28;46150;-82
2022/03/25 07:07:55;;;;;;;;;52.50;43.25;;;;;13.30;40.01;102475.56;4993559;28;45391;-82
2022/03/25 07:10:23;;;;;;;;;60.50;47.25;;;;;13.39;39.58;102482.47;4984961;28;45561;-83
2022/03/25 07:12:49;;;;;;;;;60.00;46.50;;;;;13.44;39.44;102483.22;5016743;28;45313;-80
2022/03/25 07:15:14;;;;;;;;;62.25;49.50;;;;;13.40;39.39;102466.34;4993192;28;45968;-81
2022/03/25 07:17:43;;;;;;;;;62.75;48.25;;;;;13.33;39.19;102443.34;5060805;28;45536;-81
2022/03/25 07:20:13;;;;;;;;;58.75;47.00;;;;;13.41;39.13;102457.38;5027461;28;45280;-81
2022/03/25 07:22:43;;;;;;;;;54.50;43.50;;;;;13.34;39.14;102434.38;5027113;28;45556;-82
2022/03/25 07:25:09;;;;;;;;;53.75;42.25;;;;;13.48;39.33;102467.00;5060008;28;47541;-81
2022/03/25 07:27:35;;;;;;;;;60.25;48.00;;;;;13.60;39.08;102467.59;5077473;28;45341;-82
2022/03/25 07:30:00;;;;;;;;;56.50;46.50;;;;;13.70;39.16;102483.38;5049060;28;45570;-81
2022/03/25 07:32:26;;;;;;;;;51.50;43.75;;;;;13.74;39.08;102465.38;4976637;28;45386;-81
2022/03/25 07:34:51;;;;;;;;;51.75;43.00;;;;;13.95;38.92;102485.31;4974970;28;45298;-81
2022/03/25 07:37:17;;;;;;;;;59.75;47.75;;;;;13.75;38.81;102445.72;4977919;28;45345;-82
2022/03/25 07:39:44;;;;;;;;;63.25;50.50;;;;;14.13;38.70;102491.94;4959537;28;45371;-82
2022/03/25 07:42:09;;;;;;;;;66.50;47.25;;;;;14.19;38.73;102497.13;4980854;28;45565;-83
2022/03/25 07:44:36;;;;;;;;;62.25;44.50;;;;;14.27;38.82;102492.38;4974985;28;46599;-83
2022/03/25 07:47:01;;;;;;;;;53.50;42.00;;;;;14.36;37.75;102497.44;4969753;28;45417;-83
2022/03/25 07:49:26;;;;;;;;;51.25;38.50;;;;;14.27;37.49;102465.56;4968915;28;45397;-83
2022/03/25 07:51:52;;;;;;;;;45.00;36.50;;;;;14.61;37.48;102503.88;4989925;28;45339;-83
2022/03/25 07:54:17;;;;;;;;;49.25;36.50;;;;;14.42;35.92;102450.78;4979149;28;52014;-82
2022/03/25 07:56:43;;;;;;;;;50.00;39.50;;;;;14.63;35.44;102475.19;4975463;28;45344;-82
2022/03/25 07:59:08;;;;;;;;;45.00;37.25;;;;;14.08;35.55;102360.69;4975729;28;45687;-82
2022/03/25 08:01:34;;;;;;;;;50.00;38.00;;;;;15.01;35.65;102505.22;4976946;28;45448;-81
2022/03/25 08:03:59;;;;;;;;;54.00;42.25;;;;;15.11;35.47;102506.69;4979387;28;46266;-81
2022/03/25 08:06:24;;;;;;;;;46.75;37.00;;;;;14.50;34.58;102392.38;4979894;28;45961;-81
2022/03/25 08:08:50;;;;;;;;;42.75;35.50;;;;;15.30;34.79;102509.59;4980488;28;46364;-81
2022/03/25 08:11:20;;;;;;;;;47.75;39.50;;;;;15.39;34.37;102507.47;4984664;28;45503;-82
2022/03/25 08:13:47;;;;;;;;;50.50;38.25;;;;;14.57;34.47;102347.47;4982388;28;45925;-82
2022/03/25 08:16:14;;;;;;;;;40.50;36.25;;;;;15.36;34.40;102472.66;4974907;28;45402;-81
2022/03/25 08:18:39;;;;;;;;;47.00;36.25;;;;;15.69;33.92;102507.28;4977170;28;45413;-83
2022/03/25 08:21:06;;;;;;;;;53.25;38.00;;;;;15.35;33.82;102435.09;5050838;28;45917;-82
2022/03/25 08:29:00;;;;;;;;;44.25;35.75;;;;;15.55;33.42;102402.13;4975486;28;45433;-84
2022/03/25 08:31:25;;;;;;;;;44.75;36.50;;;;;16.29;32.27;102423.44;5004697;28;45500;-84
2022/03/25 08:33:51;;;;;;;;;47.00;40.00;;;;;17.44;31.53;102507.44;4980517;28;46138;-84
2022/03/25 08:36:17;;;;;;;;;48.25;38.25;;;;;17.73;31.08;102504.31;4976066;28;45165;-84
2022/03/25 08:38:44;;;;;;;;;41.25;35.75;;;;;17.68;30.07;102440.75;4976606;28;45430;-84
2022/03/25 08:41:10;;;;;;;;;44.50;37.00;;;;;18.26;29.52;102481.19;4976610;28;45388;-84
2022/03/25 08:43:36;;;;;;;;;47.75;39.00;;;;;18.20;29.81;102465.28;4983828;28;46079;-84
2022/03/25 08:46:03;;;;;;;;;43.75;36.75;;;;;17.87;29.63;102384.16;4969974;28;46055;-84
2022/03/25 08:48:28;;;;;;;;;36.00;32.25;;;;;18.30;29.38;102427.91;4976053;28;45372;-84
2022/03/25 08:50:54;;;;;;;;;52.00;38.25;;;;;18.87;29.39;102495.31;4977693;28;45390;-84
2022/03/25 08:53:20;;;;;;;;;49.00;39.25;;;;;19.04;29.55;102492.66;4983757;28;48042;-83
2022/03/25 08:55:45;;;;;;;;;42.25;36.25;;;;;19.28;28.83;102498.59;5079820;28;45283;-83
2022/03/25 08:58:11;;;;;;;;;48.25;37.50;;;;;19.31;28.69;102465.13;5045244;28;45432;-83
2022/03/25 09:00:37;;;;;;;;;48.75;38.25;;;;;19.49;28.41;102463.28;5022922;28;45561;-83
2022/03/25 09:03:03;;;;;;;;;48.50;37.00;;;;;19.88;27.58;102491.84;4980565;28;45675;-83
2022/03/25 09:05:28;;;;;;;;;50.00;39.00;;;;;19.75;26.71;102440.25;4977581;28;45378;-83
2022/03/25 09:07:53;;;;;;;;;53.75;41.00;;;;;20.18;26.59;102491.97;5001546;28;45415;-83
2022/03/25 09:10:19;;;;;;;;;47.50;36.25;;;;;20.22;26.85;102469.16;4959658;28;45373;-83
2022/03/25 09:12:45;;;;;;;;;42.75;37.25;;;;;20.17;25.69;102438.78;4991890;28;47271;-83
2022/03/25 09:15:15;;;;;;;;;51.75;42.50;;;;;20.71;26.00;102496.16;4992304;28;45446;-83
2022/03/25 09:17:45;;;;;;;;;46.50;38.25;;;;;20.94;25.67;102489.38;4957171;28;45383;-83
2022/03/25 09:20:11;;;;;;;;;49.25;36.50;;;;;21.18;26.06;102497.88;4957422;28;45299;-83
2022/03/25 09:22:36;;;;;;;;;46.50;36.75;;;;;21.36;25.61;102476.91;4957072;28;45916;-83
2022/03/25 09:25:04;;;;;;;;;53.00;41.00;;;;;21.74;24.63;102487.22;4974222;28;45863;-83
2022/03/25 09:27:30;;;;;;;;;50.25;37.25;;;;;22.04;24.41;102492.56;5065774;28;45548;-83
2022/03/25 09:29:55;;;;;;;;;49.50;40.00;;;;;22.45;24.02;102485.41;5022054;28;45335;-82
2022/03/25 09:32:20;;;;;;;;;81.75;70.75;;;;;22.88;23.23;102485.25;5039329;28;45382;-82
2022/03/25 09:37:30;;;;;;;;;49.25;38.00;;;;;23.98;22.18;102442.09;4970479;28;45797;-82
2022/03/25 09:39:55;;;;;;;;;36.50;32.50;;;;;24.85;21.42;102442.84;5001952;28;45402;-82
2022/03/25 09:42:21;;;;;;;;;47.50;37.00;;;;;25.40;20.58;102402.19;5005286;28;45433;-82
2022/03/25 09:44:48;;;;;;;;;46.50;38.00;;;;;26.69;19.69;102473.56;4971711;28;46066;-82
2022/03/25 09:47:16;;;;;;;;;52.75;39.50;;;;;27.55;18.84;102471.56;4972244;28;45525;-82
2022/03/25 09:49:42;;;;;;;;;49.00;40.50;;;;;28.28;17.94;102446.75;4976805;28;45520;-82
2022/03/25 09:52:08;;;;;;;;;46.25;37.25;;;;;29.37;17.31;102471.34;4974850;28;46912;-83
2022/03/25 09:54:34;;;;;;;;;49.25;40.00;;;;;30.25;16.70;102458.94;4949426;28;45505;-82
2022/03/25 09:57:00;;;;;;;;;53.25;40.50;;;;;31.18;15.67;102444.84;4959340;28;45637;-83
2022/03/25 09:59:26;;;;;;;;;46.25;39.50;;;;;32.21;14.50;102458.69;4966605;28;45474;-82
2022/03/25 10:01:51;;;;;;;;;48.25;39.50;;;;;33.07;14.66;102432.59;4962090;28;45934;-82
2022/03/25 10:04:41;;;;;;;;;45.50;37.50;;;;;34.29;13.44;102440.63;4967004;28;45705;-82
2022/03/25 10:07:30;;;;;;;;;48.25;40.00;;;;;35.43;12.69;102453.53;4971520;28;45423;-82
2022/03/25 10:10:15;;;;;;;;;50.75;41.00;;;;;36.42;12.43;102455.06;4965776;28;46341;-83
2022/03/25 10:12:43;;;;;;;;;45.25;37.50;;;;;37.36;11.17;102450.13;4958106;28;47042;-83
2022/03/25 10:15:14;;;;;;;;;46.25;35.50;;;;;38.34;11.33;102454.69;4968910;28;45558;-83
2022/03/25 10:17:58;;;;;;;;;46.50;38.00;;;;;39.18;10.57;102450.50;4963415;28;45615;-83
2022/03/25 10:20:29;;;;;;;;;53.25;41.50;;;;;39.98;10.03;102436.34;4962105;28;45430;-83
2022/03/25 10:22:57;;;;;;;;;49.50;39.50;;;;;40.75;9.51;102451.16;4960234;28;46258;-83
2022/03/25 10:25:40;;;;;;;;;47.75;39.25;;;;;41.26;9.51;102426.81;4972509;28;45880;-83
2022/03/25 10:28:36;;;;;;;;;51.50;42.75;;;;;41.51;8.70;102446.31;4962406;28;45460;-83
2022/03/25 10:31:05;;;;;;;;;52.25;39.50;;;;;41.91;8.74;102432.72;4949643;28;45610;-84
2022/03/25 10:34:00;;;;;;;;;56.75;43.00;;;;;42.21;8.67;102447.84;4986209;28;46418;-84
2022/03/25 10:36:26;;;;;;;;;53.75;41.75;;;;;42.45;8.31;102448.78;4965977;28;45714;-84
2022/03/25 10:38:53;;;;;;;;;44.75;36.75;;;;;42.70;8.54;102420.56;4960763;28;45559;-84
2022/03/25 10:41:23;;;;;;;;;50.25;41.50;;;;;42.77;8.28;102398.84;4972919;28;45537;-84
2022/03/25 10:43:59;;;;;;;;;47.00;40.00;;;;;43.12;8.36;102438.16;4963847;28;46336;-84
2022/03/25 10:46:26;;;;;;;;;48.75;40.00;;;;;43.00;7.98;102426.94;4974753;28;45491;-81
2022/03/25 10:48:53;;;;;;;;;48.25;40.75;;;;;42.88;7.97;102416.81;4969531;28;45847;-81
2022/03/25 10:51:18;;;;;;;;;50.50;41.75;;;;;42.58;8.45;102401.75;4964668;28;45419;-81
2022/03/25 10:53:47;;;;;;;;;50.25;40.25;;;;;42.42;8.33;102412.81;4966186;28;46358;-81
2022/03/25 10:56:13;;;;;;;;;45.00;37.00;;;;;42.20;8.82;102452.59;4972709;28;45605;-81
2022/03/25 10:58:38;;;;;;;;;51.50;40.50;;;;;41.80;8.79;102439.09;4968682;28;45501;-82
2022/03/25 11:01:06;;;;;;;;;44.75;35.75;;;;;41.50;9.42;102422.22;4961107;28;45383;-82
2022/03/25 11:03:32;;;;;;;;;49.50;41.00;;;;;40.95;9.11;102405.34;4976117;28;46203;-82
2022/03/25 11:05:58;;;;;;;;;52.25;40.00;;;;;40.71;9.26;102416.31;4977084;28;45513;-83
2022/03/25 11:08:23;;;;;;;;;53.00;42.25;;;;;40.38;9.57;102436.97;4963763;28;45545;-81
2022/03/25 11:10:49;;;;;;;;;51.00;42.00;;;;;40.13;9.33;102433.25;4948564;28;45544;-81
2022/03/25 11:13:16;;;;;;;;;28.75;23.00;;;;;39.85;9.87;102428.88;4981188;28;45292;-82
2022/03/25 11:15:44;;;;;;;;;47.00;37.75;;;;;39.51;9.97;102405.78;4975906;28;46310;-81